Time;durP1;ratioP1;P1;durP2;ratioP2;P2;SDS_P1;SDS_P2;PMS_P1;PMS_P2;Temp;Humidity;BMP_temperature;BMP_pressure;BME280_temperature;BME280_humidity;BME280_pressure;Samples;Min_cycle;Max_cycle;Signal;HPM_P1;HPM_P2
2022/12/01 00:01:21;;;;;;;8.43;7.20;;;;;;;19.02;48.78;101315.59;5016304;28;20054;-77
2022/12/01 00:03:48;;;;;;;8.05;6.72;;;;;;;19.02;48.58;101315.59;5016428;28;20079;-77
2022/12/01 00:06:19;;;;;;;8.50;7.47;;;;;;;19.02;48.40;101323.66;5016365;28;20041;-77
2022/12/01 00:11:36;;;;;;;9.60;7.28;;;;;;;19.01;48.34;101319.28;5015782;28;20057;-78
2022/12/01 00:14:03;;;;;;;11.55;8.27;;;;;;;19.01;48.07;101319.28;5015721;28;20625;-78
2022/12/01 00:16:31;;;;;;;11.25;9.25;;;;;;;19.01;47.98;101325.50;5016194;28;20505;-78
2022/12/01 00:18:59;;;;;;;12.68;8.05;;;;;;;19.01;47.84;101316.59;5016065;28;20048;-78
2022/12/01 00:21:27;;;;;;;9.43;7.93;;;;;;;19.00;47.77;101318.41;5015420;28;20497;-78
2022/12/01 00:23:56;;;;;;;9.43;7.75;;;;;;;19.00;47.91;101317.56;5015856;28;20050;-78
2022/12/01 00:26:26;;;;;;;10.77;9.27;;;;;;;18.98;47.47;101306.94;5015062;28;20045;-78
2022/12/01 00:28:58;;;;;;;11.85;8.38;;;;;;;19.00;47.36;101320.25;5014817;28;20061;-78
2022/12/01 00:31:26;;;;;;;11.80;8.00;;;;;;;19.00;47.57;101320.25;5013511;28;20057;-78
2022/12/01 00:33:54;;;;;;;10.38;8.60;;;;;;;18.99;47.57;101315.84;5016481;28;20054;-78
2022/12/01 00:36:22;;;;;;;10.73;8.20;;;;;;;18.98;47.36;101320.34;5016175;28;20045;-78
2022/12/01 00:38:56;;;;;;;9.15;7.63;;;;;;;18.98;47.35;101317.66;5015334;28;20046;-78
2022/12/01 00:41:24;;;;;;;12.63;7.65;;;;;;;18.99;47.45;101319.38;5014452;28;20058;-78
2022/12/01 00:43:51;;;;;;;9.77;7.30;;;;;;;18.98;47.26;101319.50;5015506;28;20394;-78
2022/12/01 00:46:19;;;;;;;10.30;8.05;;;;;;;18.98;47.41;101319.50;5015009;28;20041;-78
2022/12/01 00:48:47;;;;;;;9.63;8.07;;;;;;;18.98;47.30;101322.19;5015328;28;20042;-79
2022/12/01 00:51:14;;;;;;;11.40;7.88;;;;;;;18.98;47.61;101322.19;5014917;28;20050;-79
2022/12/01 00:53:41;;;;;;;9.23;7.68;;;;;;;18.97;47.50;101321.31;5015586;28;20052;-79
2022/12/01 00:56:09;;;;;;;8.75;7.35;;;;;;;18.98;47.34;101327.53;5015893;28;20049;-79
2022/12/01 00:58:36;;;;;;;9.07;7.75;;;;;;;18.97;47.34;101328.53;5015654;28;20058;-79
2022/12/01 01:01:03;;;;;;;8.27;7.05;;;;;;;18.97;47.34;101328.53;5015668;28;20071;-79
2022/12/01 01:03:32;;;;;;;10.02;7.85;;;;;;;18.96;47.47;101327.69;5015814;28;20045;-79
2022/12/01 01:06:09;;;;;;;9.48;7.90;;;;;;;18.97;47.37;101332.06;5015313;28;20046;-79
2022/12/01 01:08:36;;;;;;;11.02;7.90;;;;;;;18.96;47.43;101332.19;5015673;28;20091;-78
2022/12/01 01:11:04;;;;;;;9.20;7.38;;;;;;;18.96;47.40;101334.88;5014820;28;20409;-78
2022/12/01 01:13:32;;;;;;;10.00;8.10;;;;;;;18.96;47.48;101337.56;5014755;28;20046;-78
2022/12/01 01:16:01;;;;;;;10.02;7.93;;;;;;;18.97;47.62;101336.56;5015514;28;20061;-78
2022/12/01 01:18:29;;;;;;;9.80;8.02;;;;;;;18.96;47.49;101334.88;5014650;28;20042;-78
2022/12/01 01:20:58;;;;;;;9.93;6.75;;;;;;;18.95;47.48;101333.13;5014670;28;20409;-78
2022/12/01 01:23:26;;;;;;;7.90;6.75;;;;;;;18.95;47.73;101335.81;5013112;28;20054;-79
2022/12/01 01:25:53;;;;;;;10.23;7.82;;;;;;;18.95;47.35;101335.81;5014835;28;20130;-78
2022/12/01 01:28:20;;;;;;;8.63;7.70;;;;;;;18.95;47.51;101338.50;5015026;28;20489;-78
2022/12/01 01:30:48;;;;;;;8.45;7.30;;;;;;;18.95;47.45;101335.81;5015325;28;20057;-78
2022/12/01 01:33:15;;;;;;;11.07;7.30;;;;;;;18.94;47.45;101336.81;5016116;28;20054;-79
2022/12/01 01:35:42;;;;;;;8.30;7.05;;;;;;;18.94;47.58;101329.59;5013481;28;20057;-78
2022/12/01 01:38:10;;;;;;;9.25;7.85;;;;;;;18.95;47.76;101335.81;5014588;28;20045;-78
2022/12/01 01:40:45;;;;;;;9.80;7.80;;;;;;;18.95;47.47;101335.81;5015354;28;20058;-78
2022/12/01 01:43:15;;;;;;;9.57;7.65;;;;;;;18.94;47.69;101326.91;5019081;28;20073;-78
2022/12/01 01:45:42;;;;;;;10.63;7.50;;;;;;;18.94;47.70;101320.69;5018105;28;20054;-78
2022/12/01 01:48:12;;;;;;;8.52;7.10;;;;;;;18.95;47.51;101327.78;5018489;28;20485;-78
2022/12/01 01:50:39;;;;;;;9.75;7.90;;;;;;;18.94;47.77;101326.06;5018683;28;20050;-78
2022/12/01 01:53:12;;;;;;;9.90;8.60;;;;;;;18.94;47.97;101323.38;5018437;28;20441;-78
2022/12/01 01:55:39;;;;;;;8.32;7.20;;;;;;;18.93;47.81;101319.84;5018819;28;20050;-78
2022/12/01 01:58:09;;;;;;;10.85;7.80;;;;;;;18.93;47.79;101322.53;5017791;28;20052;-79
2022/12/01 02:00:42;;;;;;;9.80;7.70;;;;;;;18.93;47.66;101322.53;5018159;28;20069;-78
2022/12/01 02:03:13;;;;;;;9.48;7.35;;;;;;;18.93;47.58;101309.13;5017233;28;20046;-78
2022/12/01 02:05:43;;;;;;;10.15;7.63;;;;;;;18.94;47.51;101318.03;5018753;28;20053;-79
2022/12/01 02:08:11;;;;;;;8.25;6.97;;;;;;;18.93;47.64;101319.00;5018312;28;20046;-79
2022/12/01 02:11:03;;;;;;;8.88;7.22;;;;;;;18.93;47.42;101317.16;5017579;28;20410;-79
2022/12/01 02:13:58;;;;;;;9.85;7.90;;;;;;;18.92;47.24;101315.47;5018403;28;20060;-79
2022/12/01 02:16:25;;;;;;;14.45;9.05;;;;;;;18.94;47.27;101318.03;5017996;28;20497;-79
2022/12/01 02:18:52;;;;;;;10.40;8.30;;;;;;;18.93;47.58;101314.47;5017820;28;20053;-79
2022/12/01 02:21:41;;;;;;;9.80;7.18;;;;;;;18.93;47.92;101319.00;5017606;28;20045;-79
2022/12/01 02:24:55;;;;;;;10.55;8.45;;;;;;;18.93;48.04;101310.94;5018413;28;20041;-79
2022/12/01 02:27:37;;;;;;;10.00;8.13;;;;;;;18.92;47.72;101306.53;5016650;28;20049;-79
2022/12/01 02:30:08;;;;;;;9.95;7.20;;;;;;;18.91;47.56;101305.69;5018088;28;20056;-79
2022/12/01 02:32:47;;;;;;;8.60;7.20;;;;;;;18.91;47.75;101302.16;5018206;28;20374;-78
2022/12/01 02:35:27;;;;;;;10.55;8.10;;;;;;;18.91;47.80;101303.00;5016482;28;20073;-78
2022/12/01 02:38:15;;;;;;;11.77;7.25;;;;;;;18.91;47.95;101302.16;5016997;28;20053;-78
2022/12/01 02:40:53;;;;;;;10.10;8.02;;;;;;;18.91;48.05;101302.16;5017279;28;20061;-78
2022/12/01 02:46:19;;;;;;;9.93;7.28;;;;;;;18.90;48.01;101300.44;5017510;28;20532;-79
2022/12/01 02:48:50;;;;;;;8.93;7.80;;;;;;;18.88;48.00;101302.38;5017631;28;20046;-79
2022/12/01 02:51:30;;;;;;;8.40;7.07;;;;;;;18.90;47.96;101303.13;5016902;28;20046;-78
2022/12/01 02:54:00;;;;;;;11.07;7.60;;;;;;;18.88;48.00;101305.94;5017488;28;20470;-78
2022/12/01 02:56:28;;;;;;;8.75;7.45;;;;;;;18.88;48.07;101305.94;5017001;28;20502;-77
2022/12/01 02:58:55;;;;;;;9.63;7.53;;;;;;;18.89;48.23;101306.78;5015853;28;20050;-78
2022/12/01 03:01:36;;;;;;;8.48;7.45;;;;;;;18.90;48.15;101306.66;5015565;28;20443;-77
2022/12/01 03:04:31;;;;;;;9.25;7.38;;;;;;;18.88;47.85;101307.75;5017463;28;20378;-78
2022/12/01 03:07:17;;;;;;;9.70;7.30;;;;;;;18.88;48.03;101297.91;5015750;28;20065;-78
2022/12/01 03:10:26;;;;;;;9.55;7.53;;;;;;;18.88;48.17;101300.56;5016042;28;20057;-79
2022/12/01 03:12:59;;;;;;;8.73;7.03;;;;;;;18.88;47.80;101300.56;5017075;28;20042;-78
2022/12/01 03:15:31;;;;;;;;;;;;;;;18.88;48.15;101299.69;5015587;28;20061;-79
2022/12/01 03:18:05;;;;;;;9.43;7.13;;;;;;;18.88;48.09;101297.00;5017293;28;19928;-79
2022/12/01 03:20:50;;;;;;;9.00;7.13;;;;;;;18.88;48.19;101300.56;5016626;28;20057;-79
2022/12/01 03:23:23;;;;;;;9.73;7.30;;;;;;;18.87;48.04;101285.44;5016831;28;20050;-78
2022/12/01 03:25:55;;;;;;;8.15;7.30;;;;;;;18.87;48.11;101301.53;5015862;28;20054;-79
2022/12/01 03:28:29;;;;;;;8.63;7.72;;;;;;;18.88;48.23;101297.00;5017068;28;20384;-79
2022/12/01 03:31:02;;;;;;;8.60;7.28;;;;;;;18.87;48.21;101296.16;5016634;28;20487;-79
2022/12/01 03:33:42;;;;;;;10.30;7.57;;;;;;;18.87;48.36;101298.00;5016522;28;20061;-79
2022/12/01 03:36:18;;;;;;;8.65;7.35;;;;;;;18.88;48.19;101294.31;5016349;28;20049;-79
2022/12/01 03:38:50;;;;;;;10.80;7.47;;;;;;;18.86;48.30;101290.94;5016948;28;20390;-78
2022/12/01 03:41:23;;;;;;;9.80;7.78;;;;;;;18.87;48.32;101289.94;5015934;28;20057;-78
2022/12/01 03:44:06;;;;;;;8.55;7.60;;;;;;;18.87;48.06;101303.34;5016646;28;20050;-79
2022/12/01 03:46:39;;;;;;;;;;;;;;;18.86;48.36;101298.97;5015330;28;20054;-79
2022/12/01 03:49:08;;;;;;;9.38;7.82;;;;;;;18.86;47.91;101299.81;5016147;28;19928;-79
2022/12/01 03:51:55;;;;;;;8.95;6.93;;;;;;;18.87;48.14;101301.53;5016602;28;20054;-79
2022/12/01 03:54:32;;;;;;;10.30;7.53;;;;;;;18.85;48.23;101298.13;5015153;28;20068;-79
2022/12/01 03:57:05;;;;;;;9.18;7.55;;;;;;;18.86;47.85;101298.97;5014753;28;20502;-79
2022/12/01 03:59:35;;;;;;;9.90;7.18;;;;;;;18.85;48.09;101297.28;5016316;28;20046;-79
2022/12/01 04:02:05;;;;;;;7.78;6.50;;;;;;;18.86;48.17;101293.59;5014253;28;20049;-79
2022/12/01 04:04:33;;;;;;;8.48;7.07;;;;;;;18.85;48.26;101297.28;5015833;28;20053;-79
2022/12/01 04:07:00;;;;;;;8.98;7.10;;;;;;;18.86;48.34;101298.97;5015105;28;20053;-79
2022/12/01 04:09:28;;;;;;;10.27;7.32;;;;;;;18.84;48.13;101296.41;5016573;28;20472;-79
2022/12/01 04:14:41;;;;;;;9.23;7.28;;;;;;;18.84;48.11;101296.41;5016161;28;20052;-79
2022/12/01 04:17:08;;;;;;;8.73;6.93;;;;;;;18.84;47.83;101292.84;5014430;28;20041;-79
2022/12/01 04:19:35;;;;;;;10.15;7.72;;;;;;;18.84;48.06;101290.16;5015229;28;20065;-79
2022/12/01 04:22:03;;;;;;;10.25;8.02;;;;;;;18.84;47.96;101288.38;5014451;28;20058;-79
2022/12/01 04:24:30;;;;;;;10.48;7.85;;;;;;;18.83;48.06;101283.09;5015488;28;20046;-79
2022/12/01 04:26:57;;;;;;;8.52;7.00;;;;;;;18.84;48.17;101290.16;5015753;28;20046;-78
2022/12/01 04:29:24;;;;;;;9.63;7.25;;;;;;;18.84;47.94;101288.38;5014532;28;20406;-78
2022/12/01 04:31:52;;;;;;;9.38;7.28;;;;;;;18.83;48.06;101292.00;5015452;28;20402;-79
2022/12/01 04:34:19;;;;;;;8.52;7.20;;;;;;;18.83;47.91;101293.84;5015466;28;20425;-79
2022/12/01 04:36:47;;;;;;;8.38;6.72;;;;;;;18.83;47.95;101297.38;5015361;28;20046;-78
2022/12/01 04:39:14;;;;;;;8.02;7.07;;;;;;;18.83;47.62;101299.19;5015266;28;20049;-79
2022/12/01 04:41:41;;;;;;;10.73;8.55;;;;;;;18.84;47.59;101300.91;5014148;28;20046;-79
2022/12/01 04:44:10;;;;;;;8.02;6.93;;;;;;;18.83;48.07;101296.50;5015130;28;20045;-78
2022/12/01 04:46:37;;;;;;;8.65;7.10;;;;;;;18.84;48.10;101300.91;5015353;28;20378;-78
2022/12/01 04:49:05;;;;;;;9.80;8.25;;;;;;;18.83;47.89;101302.72;5015416;28;20046;-79
2022/12/01 04:51:32;;;;;;;8.52;6.75;;;;;;;18.84;48.09;101304.47;5016470;28;20045;-79
2022/12/01 04:54:01;;;;;;;8.52;6.82;;;;;;;18.83;48.58;101305.41;5016474;28;20457;-79
2022/12/01 04:56:28;;;;;;;10.43;6.53;;;;;;;18.83;48.82;101300.06;5015615;28;20049;-78
2022/12/01 04:58:57;;;;;;;8.45;6.93;;;;;;;18.84;48.81;101295.53;5014667;28;20051;-78
2022/12/01 05:01:25;;;;;;;8.65;7.13;;;;;;;18.83;48.88;101302.72;5015018;28;20490;-78
2022/12/01 05:03:52;;;;;;;10.00;7.15;;;;;;;18.83;48.45;101302.72;5014155;28;20064;-77
2022/12/01 05:06:23;;;;;;;9.90;7.80;;;;;;;18.84;48.23;101306.25;5015120;28;20053;-78
2022/12/01 05:08:57;;;;;;;9.43;6.85;;;;;;;18.84;48.76;101306.25;5015399;28;20050;-77
2022/12/01 05:11:27;;;;;;;10.70;7.35;;;;;;;18.84;48.79;101309.84;5013352;28;20061;-77
2022/12/01 05:13:54;;;;;;;8.55;7.10;;;;;;;18.84;48.83;101306.25;5015374;28;20042;-78
2022/12/01 05:16:25;;;;;;;7.82;7.03;;;;;;;18.83;48.94;101300.06;5034912;28;20057;-78
2022/12/01 05:21:42;;;;;;;8.20;6.50;;;;;;;18.83;48.88;101312.59;5020193;28;20045;-78
2022/12/01 05:24:11;;;;;;;10.75;7.38;;;;;;;18.83;48.70;101305.41;5019506;28;20046;-78
2022/12/01 05:26:39;;;;;;;8.43;6.80;;;;;;;18.83;48.76;101301.88;5019292;28;20398;-77
2022/12/01 05:29:07;;;;;;;10.27;7.35;;;;;;;18.83;48.54;101309.94;5017292;28;20042;-78
2022/12/01 05:31:34;;;;;;;8.07;6.90;;;;;;;18.84;48.77;101314.31;5019382;28;20053;-77
2022/12/01 05:34:02;;;;;;;8.48;6.68;;;;;;;18.83;48.72;101312.59;5019417;28;20049;-77
2022/12/01 05:36:30;;;;;;;9.25;7.35;;;;;;;18.83;48.59;101312.59;5018533;28;20073;-78
2022/12/01 05:38:57;;;;;;;10.52;7.00;;;;;;;18.83;48.84;101309.94;5016494;28;20057;-79
2022/12/01 05:41:24;;;;;;;8.25;7.35;;;;;;;18.83;48.72;101313.47;5018357;28;20069;-82
2022/12/01 05:43:52;;;;;;;9.60;7.72;;;;;;;18.83;48.79;101313.47;5017384;28;20048;-79
2022/12/01 05:46:19;;;;;;;8.73;7.72;;;;;;;18.82;48.61;101317.13;5018435;28;20117;-79
2022/12/01 05:48:46;;;;;;;11.73;7.80;;;;;;;18.82;48.66;101310.91;5018124;28;20056;-79
2022/12/01 05:51:15;;;;;;;8.23;7.38;;;;;;;18.82;48.72;101314.44;5018074;28;20053;-79
2022/12/01 05:53:44;;;;;;;8.05;7.18;;;;;;;18.82;48.70;101314.44;5018171;28;20057;-79
2022/12/01 05:56:11;;;;;;;9.00;7.30;;;;;;;18.82;48.76;101309.06;5016503;28;20058;-79
2022/12/01 05:58:39;;;;;;;9.52;7.40;;;;;;;18.82;48.62;101308.22;5018442;28;20057;-78
2022/12/01 06:01:06;;;;;;;9.23;7.40;;;;;;;18.82;48.62;101308.22;5017800;28;20473;-78
2022/12/01 06:03:33;;;;;;;8.95;6.53;;;;;;;18.82;48.61;101300.19;5017171;28;20489;-78
2022/12/01 06:06:01;;;;;;;8.38;6.70;;;;;;;18.82;48.60;101308.22;5018045;28;20053;-77
2022/12/01 06:08:28;;;;;;;8.43;6.88;;;;;;;18.82;48.56;101298.34;5018526;28;20053;-78
2022/12/01 06:10:56;;;;;;;11.65;7.10;;;;;;;18.82;48.49;101292.13;5017663;28;20398;-78
2022/12/01 06:13:23;;;;;;;10.27;7.80;;;;;;;18.82;48.46;101303.72;5016684;28;20529;-79
2022/12/01 06:15:57;;;;;;;9.25;7.22;;;;;;;18.81;48.56;101299.31;5016070;28;20050;-79
2022/12/01 06:18:36;;;;;;;9.30;6.93;;;;;;;18.82;48.51;101309.06;5018594;28;20045;-79
2022/12/01 06:21:05;;;;;;;10.60;7.90;;;;;;;18.81;48.31;101304.69;5018736;28;20041;-79
2022/12/01 06:23:33;;;;;;;9.63;7.53;;;;;;;18.82;48.36;101306.41;5017831;28;20042;-79
2022/12/01 06:26:00;;;;;;;8.13;7.30;;;;;;;18.80;48.24;101321.78;5017434;28;20050;-79
2022/12/01 06:28:28;;;;;;;10.98;7.13;;;;;;;18.81;48.40;101312.75;5017768;28;20045;-79
2022/12/01 06:30:55;;;;;;;8.57;7.13;;;;;;;18.81;48.46;101311.88;5017572;28;20053;-79
2022/12/01 06:33:30;;;;;;;10.20;8.00;;;;;;;18.80;48.53;101313.72;5018527;28;20046;-78
2022/12/01 06:35:58;;;;;;;8.63;7.18;;;;;;;18.81;48.27;101318.09;5017542;28;20049;-79
2022/12/01 06:38:29;;;;;;;9.27;7.55;;;;;;;18.81;48.25;101322.63;5016215;28;20042;-79
2022/12/01 06:40:57;;;;;;;7.93;6.65;;;;;;;18.80;48.24;101324.44;5017448;28;20057;-79
2022/12/01 06:43:24;;;;;;;8.48;7.25;;;;;;;18.81;48.38;101314.56;5018037;28;20038;-79
2022/12/01 06:45:51;;;;;;;8.73;7.35;;;;;;;18.82;48.39;101318.97;5016743;28;20049;-79
2022/12/01 06:48:27;;;;;;;8.07;7.03;;;;;;;18.81;48.40;101319.94;5017338;28;20056;-79
2022/12/01 06:50:58;;;;;;;10.15;7.63;;;;;;;18.79;48.36;101325.41;5017683;28;20041;-79
2022/12/01 06:53:27;;;;;;;10.07;8.00;;;;;;;18.80;48.30;101324.44;5017415;28;20046;-78
2022/12/01 06:56:03;;;;;;;10.35;8.13;;;;;;;18.80;48.32;101331.63;5016265;28;20389;-78
2022/12/01 06:58:31;;;;;;;8.70;7.43;;;;;;;18.80;48.38;101334.28;5018002;28;20054;-78
2022/12/01 07:00:59;;;;;;;8.85;7.07;;;;;;;18.80;48.41;101329.81;5017717;28;20394;-78
2022/12/01 07:03:26;;;;;;;8.77;7.68;;;;;;;18.78;48.22;101335.28;5017618;28;20053;-79
2022/12/01 07:05:58;;;;;;;8.63;7.47;;;;;;;18.78;48.48;101335.28;5016261;28;20050;-79
2022/12/01 07:08:27;;;;;;;9.80;7.72;;;;;;;18.81;48.39;101346.75;5017843;28;20050;-79
2022/12/01 07:10:59;;;;;;;8.50;7.05;;;;;;;18.78;48.46;101346.00;5015509;28;20045;-79
2022/12/01 07:13:27;;;;;;;10.40;7.97;;;;;;;18.80;48.50;101345.03;5015866;28;20080;-78
2022/12/01 07:16:03;;;;;;;10.13;7.45;;;;;;;18.79;48.61;101341.50;5017477;28;20072;-79
2022/12/01 07:18:32;;;;;;;9.20;7.30;;;;;;;18.81;48.50;101352.13;5016972;28;20046;-80
2022/12/01 07:21:00;;;;;;;8.88;7.97;;;;;;;18.80;48.88;101348.59;5015721;28;20054;-80
2022/12/01 07:23:28;;;;;;;10.60;8.00;;;;;;;18.81;49.24;101354.81;5016883;28;20050;-78
2022/12/01 07:26:05;;;;;;;11.82;7.70;;;;;;;18.80;49.57;101342.34;5017270;28;20050;-80
2022/12/01 07:28:33;;;;;;;8.90;7.05;;;;;;;18.81;49.15;101357.50;5017449;28;20478;-79
2022/12/01 07:31:05;;;;;;;18.83;15.20;;;;;;;18.73;45.80;101356.22;5016343;28;20060;-79
2022/12/01 07:33:33;;;;;;;22.83;18.83;;;;;;;18.50;43.94;101357.91;5017072;28;20046;-79
2022/12/01 07:36:01;;;;;;;23.83;19.70;;;;;;;18.21;43.22;101362.72;5015858;28;20287;-79
2022/12/01 07:38:32;;;;;;;22.40;18.38;;;;;;;17.99;43.82;101355.41;5015779;28;20405;-78
2022/12/01 07:41:05;;;;;;;25.17;21.13;;;;;;;17.74;43.16;101367.00;5015721;28;20508;-77
2022/12/01 07:43:32;;;;;;;28.25;22.05;;;;;;;17.56;43.57;101360.22;5016351;28;20053;-77
2022/12/01 07:46:08;;;;;;;26.52;21.20;;;;;;;17.47;43.94;101356.38;5016456;28;20482;-78
2022/12/01 07:48:37;;;;;;;27.27;21.65;;;;;;;17.44;43.67;101363.75;5016699;28;20482;-78
2022/12/01 07:51:06;;;;;;;25.95;20.90;;;;;;;17.32;43.60;101362.78;5016170;28;20064;-78
2022/12/01 07:53:34;;;;;;;24.25;21.63;;;;;;;17.28;43.83;101369.31;5016136;28;20058;-75
2022/12/01 07:56:04;;;;;;;23.55;18.13;;;;;;;17.37;45.49;101371.34;4996397;28;20058;-79
2022/12/01 07:58:35;;;;;;;21.10;15.93;;;;;;;17.51;46.66;101375.75;4996194;28;20046;-79
2022/12/01 08:01:11;;;;;;;19.63;14.75;;;;;;;17.65;47.15;101374.78;5015471;28;20466;-79
2022/12/01 08:03:40;;;;;;;15.65;13.00;;;;;;;17.76;47.29;101369.56;5015109;28;20516;-79
2022/12/01 08:06:08;;;;;;;21.15;13.23;;;;;;;17.85;47.34;101371.59;5011137;28;20054;-79
2022/12/01 08:08:37;;;;;;;17.58;13.85;;;;;;;17.93;47.35;101371.03;4996102;28;20050;-79
2022/12/01 08:11:09;;;;;;;16.92;12.18;;;;;;;18.00;47.65;101372.31;5015267;28;20052;-79
2022/12/01 08:13:37;;;;;;;13.75;11.32;;;;;;;18.07;47.67;101360.22;5014504;28;20056;-80
2022/12/01 08:16:06;;;;;;;14.55;11.68;;;;;;;18.13;47.77;101365.09;5015640;28;20045;-78
2022/12/01 08:18:35;;;;;;;15.07;11.68;;;;;;;18.19;47.60;101371.84;5014943;28;20058;-79
2022/12/01 08:21:03;;;;;;;13.02;10.65;;;;;;;18.22;47.78;101375.16;5015923;28;20478;-79
2022/12/01 08:23:30;;;;;;;12.60;9.85;;;;;;;18.27;47.69;101377.50;5014389;28;20064;-79
2022/12/01 08:26:03;;;;;;;12.75;9.85;;;;;;;18.31;47.86;101372.78;5014869;28;20069;-78
2022/12/01 08:28:31;;;;;;;12.18;9.48;;;;;;;18.34;47.71;101372.56;5013679;28;20061;-79
2022/12/01 08:30:58;;;;;;;12.75;10.80;;;;;;;18.37;47.56;101367.81;5014948;28;20046;-79
2022/12/01 08:33:28;;;;;;;11.60;9.20;;;;;;;18.40;47.72;101378.34;5014557;28;20050;-79
2022/12/01 08:35:55;;;;;;;10.60;9.00;;;;;;;18.42;47.77;101373.69;5015079;28;20054;-79
2022/12/01 08:38:22;;;;;;;10.98;9.15;;;;;;;18.44;47.73;101373.59;5014483;28;20477;-78
2022/12/01 08:40:49;;;;;;;12.15;8.68;;;;;;;18.46;47.83;101369.81;5014458;28;20058;-79
2022/12/01 08:43:17;;;;;;;9.63;8.43;;;;;;;18.48;47.86;101369.72;5014563;28;20041;-79
2022/12/01 08:46:05;;;;;;;10.82;9.20;;;;;;;18.50;47.53;101368.63;5014494;28;20049;-79
2022/12/01 08:48:32;;;;;;;13.15;10.23;;;;;;;18.52;46.97;101382.78;5014749;28;20050;-79
2022/12/01 08:51:20;;;;;;;12.25;9.77;;;;;;;18.53;47.14;101383.66;5014732;28;20046;-79
2022/12/01 08:53:48;;;;;;;11.40;9.57;;;;;;;18.52;46.96;101376.59;5013088;28;20057;-78
2022/12/01 08:56:21;;;;;;;9.75;8.25;;;;;;;18.55;47.42;101389.75;5014152;28;20096;-79
2022/12/01 08:58:49;;;;;;;12.15;9.88;;;;;;;18.55;47.03;101381.69;5014653;28;20045;-78
2022/12/01 09:01:18;;;;;;;9.93;8.77;;;;;;;18.56;47.03;101382.56;5013736;28;20056;-78
2022/12/01 09:03:46;;;;;;;9.27;7.50;;;;;;;18.56;47.17;101385.25;5014282;28;20505;-78
2022/12/01 09:06:22;;;;;;;9.98;8.05;;;;;;;18.56;47.52;101388.78;5014245;28;20077;-78
2022/12/01 09:08:49;;;;;;;11.57;9.00;;;;;;;18.57;47.40;101381.59;4996592;28;20073;-79
2022/12/01 09:11:17;;;;;;;10.63;8.35;;;;;;;18.56;47.48;101386.09;5029552;28;20046;-79
2022/12/01 09:13:45;;;;;;;9.13;7.70;;;;;;;18.58;47.47;101385.97;5014256;28;20046;-78
2022/12/01 09:16:20;;;;;;;10.77;8.05;;;;;;;18.57;47.65;101395.84;5014735;28;20056;-78
2022/12/01 09:18:48;;;;;;;9.23;8.27;;;;;;;18.58;47.52;101396.72;5014532;28;20057;-79
2022/12/01 09:21:23;;;;;;;10.38;7.63;;;;;;;18.58;47.54;101397.56;5014231;28;20042;-79
2022/12/01 09:23:51;;;;;;;10.45;8.38;;;;;;;18.58;47.63;101391.34;5015190;28;20053;-79
2022/12/01 09:26:19;;;;;;;9.25;7.88;;;;;;;18.59;47.62;101387.69;5014371;28;20383;-79
2022/12/01 09:28:48;;;;;;;11.60;8.30;;;;;;;18.58;47.63;101381.47;5014891;28;20057;-79
2022/12/01 09:31:17;;;;;;;9.57;7.57;;;;;;;18.59;47.75;101387.69;5014449;28;20425;-79
2022/12/01 09:33:45;;;;;;;10.60;8.52;;;;;;;18.60;47.56;101384.06;5014325;28;20049;-79
2022/12/01 09:36:12;;;;;;;9.88;7.60;;;;;;;18.59;47.51;101396.59;5014323;28;20042;-78
2022/12/01 09:38:39;;;;;;;9.05;7.25;;;;;;;18.59;47.51;101388.53;5014192;28;20057;-78
2022/12/01 09:41:20;;;;;;;9.70;8.10;;;;;;;18.59;47.50;101391.22;5012481;28;20054;-78
2022/12/01 09:44:01;;;;;;;8.95;7.65;;;;;;;18.60;47.59;101378.69;5013949;28;20050;-78
2022/12/01 09:46:35;;;;;;;8.88;7.65;;;;;;;18.60;47.49;101389.41;5013230;28;20041;-78
2022/12/01 09:49:07;;;;;;;10.57;7.93;;;;;;;18.61;47.16;101388.44;5012683;28;20061;-78
2022/12/01 09:51:35;;;;;;;10.77;7.78;;;;;;;18.60;47.00;101376.88;5013684;28;20049;-78
2022/12/01 09:54:03;;;;;;;9.18;7.13;;;;;;;18.60;47.56;101368.81;5013894;28;20073;-78
2022/12/01 09:56:42;;;;;;;12.02;7.97;;;;;;;18.61;47.47;101367.00;5013964;28;20050;-78
2022/12/01 09:59:23;;;;;;;8.10;7.13;;;;;;;18.62;47.95;101368.69;5012048;28;20057;-78
2022/12/01 10:02:00;;;;;;;8.75;7.40;;;;;;;18.62;47.93;101368.69;5013612;28;20050;-77
2022/12/01 10:04:40;;;;;;;9.68;8.10;;;;;;;18.63;47.68;101367.72;5016365;28;20409;-77
2022/12/01 10:07:21;;;;;;;9.18;6.68;;;;;;;18.62;48.09;101360.66;5012720;28;20054;-77
2022/12/01 10:09:56;;;;;;;8.30;6.82;;;;;;;18.62;47.86;101363.34;5000678;28;20043;-78
2022/12/01 10:12:28;;;;;;;11.45;8.10;;;;;;;18.64;47.49;101356.91;5017875;28;20042;-78
2022/12/01 10:15:11;;;;;;;10.13;7.60;;;;;;;18.63;47.58;101354.31;5016246;28;20497;-78
2022/12/01 10:18:08;;;;;;;;;;;;;;;18.63;47.81;101357.84;5018189;28;20050;-78
2022/12/01 10:20:44;;;;;;;7.95;6.28;;;;;;;18.64;47.77;101356.91;4994982;28;19929;-78
2022/12/01 10:23:20;;;;;;;9.90;7.68;;;;;;;18.64;47.36;101356.03;4995241;28;20058;-78
2022/12/01 10:26:08;;;;;;;9.20;7.82;;;;;;;18.63;47.49;101347.13;4978503;28;20054;-78
2022/12/01 10:28:45;;;;;;;9.95;7.45;;;;;;;18.65;47.63;101365.78;4995478;28;20496;-78
2022/12/01 10:31:42;;;;;;;8.70;7.25;;;;;;;18.64;47.49;101356.91;4995459;28;20059;-79
2022/12/01 10:34:21;;;;;;;11.57;8.38;;;;;;;18.64;47.35;101350.69;4996267;28;20054;-78
2022/12/01 10:36:49;;;;;;;10.40;7.40;;;;;;;18.65;47.54;101349.69;4996070;28;20050;-78
2022/12/01 10:39:38;;;;;;;12.30;7.03;;;;;;;18.64;47.48;101348.84;4979141;28;20057;-78
2022/12/01 10:42:12;;;;;;;8.88;6.43;;;;;;;18.65;47.72;101350.56;4996060;28;20062;-77
2022/12/01 10:44:40;;;;;;;8.80;6.75;;;;;;;18.65;47.72;101349.69;4996402;28;20481;-78
2022/12/01 10:47:19;;;;;;;8.13;6.18;;;;;;;18.65;47.25;101337.16;4979059;28;20094;-79
2022/12/01 10:49:47;;;;;;;8.27;7.03;;;;;;;18.66;47.49;101332.63;4979446;28;20054;-78
2022/12/01 10:52:32;;;;;;;9.40;7.40;;;;;;;18.66;47.74;101332.63;4976478;28;20066;-78
2022/12/01 10:55:01;;;;;;;10.15;6.85;;;;;;;18.65;47.77;101331.78;4977432;28;20564;-78
2022/12/01 10:57:30;;;;;;;9.52;6.85;;;;;;;18.66;47.78;101330.81;5008723;28;20066;-79
2022/12/01 11:00:07;;;;;;;8.00;6.78;;;;;;;18.67;47.71;101328.97;5015349;28;20052;-78
2022/12/01 11:02:35;;;;;;;8.50;6.82;;;;;;;18.66;47.66;101332.63;5015056;28;20387;-78
2022/12/01 11:05:25;;;;;;;8.82;7.35;;;;;;;18.66;47.69;101328.13;5016740;28;20045;-78
2022/12/01 11:07:53;;;;;;;8.65;7.68;;;;;;;18.67;47.25;101337.03;5017008;28;20057;-78
2022/12/01 11:10:27;;;;;;;9.48;7.47;;;;;;;18.67;47.00;101331.66;5015622;28;20057;-78
2022/12/01 11:13:13;;;;;;;9.63;6.90;;;;;;;18.67;47.01;101320.94;5016330;28;20038;-78
2022/12/01 11:15:50;;;;;;;7.93;7.13;;;;;;;18.67;47.23;101319.09;5016508;28;20042;-78
2022/12/01 11:18:26;;;;;;;9.50;7.72;;;;;;;18.66;47.23;101325.44;5016926;28;20042;-78
2022/12/01 11:21:26;;;;;;;9.88;6.10;;;;;;;18.67;47.14;101323.63;5016708;28;20042;-78
2022/12/01 11:23:55;;;;;;;10.20;7.60;;;;;;;18.66;47.43;101320.06;5015243;28;20046;-78
2022/12/01 11:26:29;;;;;;;8.05;7.10;;;;;;;18.66;47.48;101325.44;5015607;28;20398;-79
2022/12/01 11:29:26;;;;;;;8.77;7.18;;;;;;;18.67;47.34;101320.94;5016611;28;20041;-79
2022/12/01 11:31:53;;;;;;;8.00;7.20;;;;;;;18.67;47.36;101321.78;5012214;28;20065;-79
2022/12/01 11:34:23;;;;;;;9.98;7.90;;;;;;;18.67;46.98;101323.63;5015238;28;20077;-79
2022/12/01 11:36:54;;;;;;;8.23;6.82;;;;;;;18.66;47.03;101320.06;5014699;28;20057;-78
2022/12/01 11:39:37;;;;;;;9.00;7.55;;;;;;;18.67;47.23;101326.28;5015895;28;20045;-78
2022/12/01 11:42:16;;;;;;;9.18;7.97;;;;;;;18.67;46.92;101318.25;5015308;28;20046;-79
2022/12/01 11:44:55;;;;;;;8.55;7.05;;;;;;;18.66;47.13;101321.91;5015916;28;20413;-79
2022/12/01 11:47:25;;;;;;;8.57;7.25;;;;;;;18.66;47.03;101317.41;5015376;28;20056;-79
2022/12/01 11:50:01;;;;;;;9.70;7.55;;;;;;;18.67;46.88;101323.63;5015740;28;20053;-78
2022/12/01 11:52:35;;;;;;;9.52;7.70;;;;;;;18.67;47.04;101316.41;5015737;28;20045;-79
2022/12/01 11:55:12;;;;;;;9.00;7.90;;;;;;;18.66;47.02;101322.75;5015534;28;20049;-79